createdAt,value
2019-01-26T00:00:42.926Z,64.63
2019-01-26T00:03:16.474Z,58.10
2019-01-26T00:05:50.379Z,64.17
2019-01-26T00:08:35.442Z,60.63
2019-01-26T00:11:08.660Z,60.67
2019-01-26T00:13:43.030Z,60.50
2019-01-26T00:16:25.515Z,61.47
2019-01-26T00:19:09.709Z,68.63
2019-01-26T00:21:44.262Z,68.43
2019-01-26T00:24:17.398Z,64.90
2019-01-26T00:26:50.624Z,61.97
2019-01-26T00:29:23.886Z,58.23
2019-01-26T00:32:02.126Z,62.00
2019-01-26T00:34:35.590Z,57.27
2019-01-26T00:37:08.988Z,57.43
2019-01-26T00:39:42.768Z,59.03
2019-01-26T00:42:15.268Z,62.43
2019-01-26T00:44:48.470Z,68.43
2019-01-26T00:47:21.651Z,61.43
2019-01-26T00:49:55.964Z,63.20
2019-01-26T00:52:29.136Z,66.13
2019-01-26T00:55:03.106Z,62.70
2019-01-26T00:57:36.225Z,61.77
2019-01-26T01:00:20.518Z,63.83
2019-01-26T01:03:04.313Z,61.00
2019-01-26T01:05:53.123Z,66.47
2019-01-26T01:08:26.993Z,63.77
2019-01-26T01:11:09.459Z,63.70
2019-01-26T01:13:42.308Z,66.10
2019-01-26T01:16:15.170Z,68.60
2019-01-26T01:18:48.487Z,69.37
2019-01-26T01:21:24.590Z,70.70
2019-01-26T01:24:06.464Z,67.33
2019-01-26T01:26:39.640Z,75.43
2019-01-26T01:29:12.875Z,75.97
2019-01-26T01:31:55.249Z,75.80
2019-01-26T01:34:28.387Z,82.00
2019-01-26T01:37:01.827Z,78.13
2019-01-26T01:39:35.255Z,77.70
2019-01-26T01:42:10.488Z,79.47
2019-01-26T01:44:45.102Z,83.40
2019-01-26T01:47:27.501Z,71.77
2019-01-26T01:50:00.825Z,78.57
2019-01-26T01:52:34.111Z,77.07
2019-01-26T01:55:08.829Z,78.20
2019-01-26T01:57:51.174Z,98.10
2019-01-26T02:00:26.496Z,82.67
2019-01-26T02:03:00.486Z,81.33
2019-01-26T02:05:46.327Z,81.93
2019-01-26T02:08:28.992Z,96.03
2019-01-26T02:11:11.561Z,85.23
2019-01-26T02:13:45.459Z,76.60
2019-01-26T02:16:28.941Z,78.53
2019-01-26T02:19:11.221Z,74.97
2019-01-26T02:21:44.927Z,85.13
2019-01-26T02:24:18.767Z,91.17
2019-01-26T02:27:01.001Z,75.67
2019-01-26T02:29:34.487Z,76.70
2019-01-26T02:32:07.760Z,87.70
2019-01-26T02:34:41.872Z,90.37
2019-01-26T02:37:16.587Z,91.30
2019-01-26T02:39:51.106Z,95.80
2019-01-26T02:42:24.701Z,98.97
2019-01-26T02:44:58.789Z,109.67
2019-01-26T02:47:41.816Z,88.20
2019-01-26T02:50:17.572Z,78.70
2019-01-26T02:52:51.088Z,91.97
2019-01-26T02:55:24.408Z,110.13
2019-01-26T02:57:57.856Z,116.63
2019-01-26T03:00:31.450Z,94.57
2019-01-26T03:03:14.689Z,89.07
2019-01-26T03:05:47.927Z,93.77
2019-01-26T03:08:21.060Z,95.43
2019-01-26T03:11:03.469Z,108.87
2019-01-26T03:13:37.035Z,109.03
2019-01-26T03:16:10.413Z,105.67
2019-01-26T03:18:44.166Z,103.53
2019-01-26T03:21:17.699Z,94.40
2019-01-26T03:23:51.298Z,94.43
2019-01-26T03:26:24.782Z,101.97
2019-01-26T03:28:58.432Z,88.87
2019-01-26T03:31:31.892Z,87.80
2019-01-26T03:34:15.768Z,97.07
2019-01-26T03:36:48.915Z,106.47
2019-01-26T03:39:22.659Z,109.63
2019-01-26T03:41:56.083Z,111.03
2019-01-26T03:44:29.375Z,91.53
2019-01-26T03:47:02.798Z,98.93
2019-01-26T03:49:45.491Z,99.73
2019-01-26T03:52:28.107Z,117.30
2019-01-26T03:55:06.273Z,98.13
2019-01-26T03:57:39.882Z,95.57
2019-01-26T04:00:18.961Z,100.27
2019-01-26T04:03:01.564Z,86.20
2019-01-26T04:05:44.881Z,142.80
2019-01-26T04:08:35.342Z,96.97
2019-01-26T04:11:17.750Z,105.63
2019-01-26T04:13:51.021Z,91.77
2019-01-26T04:16:25.101Z,115.83
2019-01-26T04:18:58.430Z,103.00
2019-01-26T04:21:32.238Z,91.50
2019-01-26T04:24:04.262Z,103.33
2019-01-26T04:26:38.726Z,98.50
2019-01-26T04:29:14.217Z,97.80
2019-01-26T04:31:47.831Z,100.93
2019-01-26T04:34:21.767Z,102.50
2019-01-26T04:36:55.472Z,96.40
2019-01-26T04:39:29.388Z,116.40
2019-01-26T04:42:02.991Z,104.47
2019-01-26T04:44:45.316Z,101.20
2019-01-26T04:47:18.885Z,108.37
2019-01-26T04:49:51.991Z,87.83
2019-01-26T04:52:25.701Z,104.07
2019-01-26T04:55:00.226Z,87.27
2019-01-26T04:57:36.977Z,93.03
2019-01-26T05:00:29.434Z,85.50
2019-01-26T05:03:02.753Z,79.17
2019-01-26T05:06:02.707Z,76.23
2019-01-26T05:08:46.305Z,73.80
2019-01-26T05:11:30.201Z,64.80
2019-01-26T05:14:04.009Z,67.50
2019-01-26T05:16:38.478Z,55.60
2019-01-26T05:19:20.689Z,58.83
2019-01-26T05:21:54.722Z,55.77
2019-01-26T05:24:37.078Z,55.07
2019-01-26T05:27:10.971Z,44.80
2019-01-26T05:30:01.415Z,44.90
2019-01-26T05:32:34.653Z,42.60
2019-01-26T05:35:08.066Z,43.83
2019-01-26T05:37:41.565Z,45.93
2019-01-26T05:40:17.849Z,54.03
2019-01-26T05:43:00.593Z,39.23
2019-01-26T05:45:44.422Z,39.33
2019-01-26T05:48:28.416Z,33.23
2019-01-26T05:51:01.669Z,34.17
2019-01-26T05:53:49.356Z,38.87
2019-01-26T05:56:40.500Z,35.60
2019-01-26T05:59:13.983Z,29.93
2019-01-26T06:01:55.858Z,31.77
2019-01-26T06:04:29.305Z,38.27
2019-01-26T06:07:03.282Z,31.57
2019-01-26T06:09:34.852Z,34.50
2019-01-26T06:12:10.431Z,27.60
2019-01-26T06:14:43.911Z,31.03
2019-01-26T06:17:17.532Z,25.60
2019-01-26T06:19:53.863Z,28.53
2019-01-26T06:22:27.701Z,29.40
2019-01-26T06:25:00.859Z,24.87
2019-01-26T06:27:43.201Z,28.97
2019-01-26T06:30:29.695Z,27.17
2019-01-26T06:33:03.345Z,25.07
2019-01-26T06:35:36.528Z,23.70
2019-01-26T06:38:11.135Z,24.90
2019-01-26T06:40:54.411Z,22.97
2019-01-26T06:43:29.595Z,22.33
2019-01-26T06:46:02.818Z,17.50
2019-01-26T06:48:40.188Z,19.77
2019-01-26T06:51:13.404Z,17.70
2019-01-26T06:53:52.147Z,17.70
2019-01-26T06:56:36.499Z,17.17
2019-01-26T06:59:11.631Z,37.60
2019-01-26T07:01:49.231Z,21.83
2019-01-26T07:04:32.720Z,20.37
2019-01-26T07:07:15.571Z,18.97
2019-01-26T07:09:57.546Z,20.47
2019-01-26T07:12:31.030Z,17.67
2019-01-26T07:15:05.273Z,21.53
2019-01-26T07:17:47.832Z,18.97
2019-01-26T07:20:21.047Z,17.43
2019-01-26T07:22:54.207Z,28.20
2019-01-26T07:25:43.114Z,18.77
2019-01-26T07:28:25.978Z,16.47
2019-01-26T07:30:59.455Z,22.77
2019-01-26T07:33:32.591Z,14.03
2019-01-26T07:36:05.998Z,16.93
2019-01-26T07:38:39.901Z,22.07
2019-01-26T07:41:13.373Z,16.23
2019-01-26T07:43:46.900Z,17.37
2019-01-26T07:46:18.842Z,16.13
2019-01-26T07:48:51.968Z,16.43
2019-01-26T07:51:34.113Z,18.90
2019-01-26T07:54:07.795Z,20.37
2019-01-26T07:56:41.124Z,15.80
2019-01-26T07:59:14.622Z,17.83
2019-01-26T08:01:48.687Z,17.33
2019-01-26T08:04:22.253Z,20.67
2019-01-26T08:06:56.065Z,22.07
2019-01-26T08:09:30.245Z,18.80
2019-01-26T08:12:19.422Z,17.37
2019-01-26T08:15:01.943Z,15.73
2019-01-26T08:17:35.722Z,15.47
2019-01-26T08:20:12.765Z,14.90
2019-01-26T08:22:46.859Z,17.53
2019-01-26T08:25:35.881Z,18.00
2019-01-26T08:28:09.028Z,13.03
2019-01-26T08:30:42.715Z,13.03
2019-01-26T08:33:15.996Z,11.70
2019-01-26T08:35:49.413Z,10.13
2019-01-26T08:38:22.991Z,11.07
2019-01-26T08:40:57.216Z,13.37
2019-01-26T08:43:30.938Z,13.53
2019-01-26T08:46:04.725Z,9.60
2019-01-26T08:48:37.925Z,9.23
2019-01-26T08:51:11.828Z,8.13
2019-01-26T08:53:45.089Z,8.87
2019-01-26T08:56:18.895Z,8.40
2019-01-26T08:58:52.069Z,9.70
2019-01-26T09:01:25.535Z,8.20
2019-01-26T09:04:04.306Z,8.77
2019-01-26T09:06:40.418Z,9.07
2019-01-26T09:09:22.370Z,7.47
2019-01-26T09:11:55.857Z,6.67
2019-01-26T09:14:29.385Z,7.60
2019-01-26T09:17:04.734Z,6.73
2019-01-26T09:19:38.485Z,7.00
2019-01-26T09:22:13.004Z,6.83
2019-01-26T09:24:54.993Z,6.63
2019-01-26T09:27:28.472Z,6.33
2019-01-26T09:30:01.715Z,6.17
2019-01-26T09:32:36.667Z,5.93
2019-01-26T09:35:09.441Z,5.67
2019-01-26T09:37:42.669Z,5.63
2019-01-26T09:40:16.260Z,4.67
2019-01-26T09:42:49.869Z,8.70
2019-01-26T09:45:23.066Z,4.27
2019-01-26T09:47:56.828Z,7.13
2019-01-26T09:50:29.961Z,22.07
2019-01-26T09:53:12.978Z,14.10
2019-01-26T09:55:46.378Z,3.33
2019-01-26T09:58:20.037Z,3.77
2019-01-26T10:00:53.331Z,20.83
2019-01-26T10:03:27.558Z,4.43
2019-01-26T10:06:01.081Z,3.60
2019-01-26T10:08:34.625Z,3.70
2019-01-26T10:11:08.102Z,3.43
2019-01-26T10:13:41.275Z,3.27
2019-01-26T10:16:25.629Z,4.70
2019-01-26T10:18:58.768Z,6.40
2019-01-26T10:21:32.025Z,3.27
2019-01-26T10:24:13.959Z,4.03
2019-01-26T10:26:47.650Z,4.17
2019-01-26T10:29:21.023Z,4.40
2019-01-26T10:31:54.267Z,4.73
2019-01-26T10:34:36.797Z,3.97
2019-01-26T10:37:16.490Z,4.53
2019-01-26T10:39:50.168Z,4.30
2019-01-26T10:42:28.650Z,4.70
2019-01-26T10:45:02.346Z,5.67
2019-01-26T10:47:45.926Z,4.23
2019-01-26T10:50:19.010Z,5.73
2019-01-26T10:52:53.994Z,4.53
2019-01-26T10:55:36.265Z,4.60
2019-01-26T10:58:09.405Z,5.10
2019-01-26T11:00:42.505Z,5.00
2019-01-26T11:03:28.973Z,5.43
2019-01-26T11:06:11.104Z,6.47
2019-01-26T11:08:46.125Z,5.63
2019-01-26T11:11:19.304Z,5.90
2019-01-26T11:14:01.717Z,6.57
2019-01-26T11:16:36.684Z,6.77
2019-01-26T11:19:09.837Z,10.17
2019-01-26T11:21:51.764Z,11.67
2019-01-26T11:24:25.004Z,10.13
2019-01-26T11:26:58.556Z,11.33
2019-01-26T11:29:31.799Z,12.00
2019-01-26T11:32:14.558Z,12.50
2019-01-26T11:34:47.693Z,12.37
2019-01-26T11:37:30.057Z,11.83
2019-01-26T11:40:12.828Z,11.50
2019-01-26T11:42:45.967Z,11.57
2019-01-26T11:45:28.996Z,14.43
2019-01-26T11:48:26.204Z,13.70
2019-01-26T11:51:22.886Z,15.20
2019-01-26T11:53:56.122Z,13.80
2019-01-26T11:56:42.765Z,14.47
2019-01-26T11:59:17.581Z,17.80
2019-01-26T12:02:21.685Z,15.47
2019-01-26T12:05:05.830Z,16.13
2019-01-26T12:07:59.960Z,13.93
2019-01-26T12:10:33.805Z,17.93
2019-01-26T12:13:06.957Z,19.03
2019-01-26T12:15:40.556Z,18.60
2019-01-26T12:18:13.708Z,19.27
2019-01-26T12:20:55.965Z,21.77
2019-01-26T12:23:29.158Z,19.27
2019-01-26T12:26:02.318Z,20.70
2019-01-26T12:28:35.608Z,20.50
2019-01-26T12:31:18.147Z,19.77
2019-01-26T12:33:51.193Z,21.30
2019-01-26T12:36:29.109Z,21.50
2019-01-26T12:39:02.307Z,20.97
2019-01-26T12:41:36.361Z,22.93
2019-01-26T12:44:09.633Z,22.53
2019-01-26T12:46:57.971Z,23.73
2019-01-26T12:49:31.275Z,21.83
2019-01-26T12:52:03.927Z,23.23
2019-01-26T12:54:46.204Z,19.67
2019-01-26T12:57:19.372Z,22.37
2019-01-26T12:59:53.239Z,23.60
2019-01-26T13:02:28.418Z,20.20
2019-01-26T13:05:01.879Z,19.97
2019-01-26T13:07:36.373Z,19.43
2019-01-26T13:10:13.780Z,18.70
2019-01-26T13:12:47.084Z,18.63
2019-01-26T13:15:29.110Z,16.83
2019-01-26T13:18:02.682Z,16.50
2019-01-26T13:20:36.062Z,22.40
2019-01-26T13:23:09.566Z,19.37
2019-01-26T13:25:43.258Z,22.30
2019-01-26T13:28:16.456Z,15.90
2019-01-26T13:30:49.999Z,17.77
2019-01-26T13:33:23.735Z,15.87
2019-01-26T13:35:56.981Z,19.97
2019-01-26T13:38:40.335Z,17.43
2019-01-26T13:41:22.824Z,13.33
2019-01-26T13:44:05.878Z,14.33
2019-01-26T13:46:39.654Z,16.77
2019-01-26T13:49:12.801Z,17.63
2019-01-26T13:51:46.011Z,14.67
2019-01-26T13:54:28.839Z,16.13
2019-01-26T13:57:05.817Z,16.63
2019-01-26T13:59:39.060Z,23.23
2019-01-26T14:02:12.192Z,19.50
2019-01-26T14:04:54.237Z,17.53
2019-01-26T14:07:28.422Z,17.73
2019-01-26T14:10:01.774Z,17.53
2019-01-26T14:12:44.294Z,16.00
2019-01-26T14:15:19.822Z,16.67
2019-01-26T14:17:52.921Z,14.77
2019-01-26T14:20:26.537Z,16.53
2019-01-26T14:22:59.709Z,16.93
2019-01-26T14:25:33.295Z,17.37
2019-01-26T14:28:06.768Z,17.73
2019-01-26T14:30:49.168Z,17.30
2019-01-26T14:33:22.314Z,16.50
2019-01-26T14:35:55.605Z,17.03
2019-01-26T14:38:29.469Z,16.13
2019-01-26T14:41:03.103Z,16.47
2019-01-26T14:43:36.615Z,16.40
2019-01-26T14:46:09.842Z,19.70
2019-01-26T14:48:51.628Z,15.53
2019-01-26T14:51:24.825Z,16.03
2019-01-26T14:53:59.589Z,19.77
2019-01-26T14:56:42.214Z,17.90
2019-01-26T14:59:24.583Z,17.10
2019-01-26T15:01:58.735Z,18.27
2019-01-26T15:04:40.935Z,17.03
2019-01-26T15:07:14.079Z,17.77
2019-01-26T15:09:47.190Z,17.07
2019-01-26T15:12:19.209Z,17.07
2019-01-26T15:15:02.327Z,19.10
2019-01-26T15:17:44.762Z,16.97
2019-01-26T15:20:21.073Z,16.33
2019-01-26T15:22:54.240Z,15.93
2019-01-26T15:25:27.376Z,14.43
2019-01-26T15:28:10.528Z,14.23
2019-01-26T15:30:44.239Z,17.83
2019-01-26T15:33:18.101Z,16.37
2019-01-26T15:35:51.564Z,17.17
2019-01-26T15:38:25.001Z,19.30
2019-01-26T15:41:07.713Z,19.73
2019-01-26T15:43:49.521Z,17.20
2019-01-26T15:46:22.990Z,19.17
2019-01-26T15:48:56.117Z,22.23
2019-01-26T15:51:38.250Z,25.03
2019-01-26T15:54:11.664Z,23.37
2019-01-26T15:56:45.474Z,23.30
2019-01-26T15:59:20.855Z,25.93
2019-01-26T16:01:54.056Z,26.20
2019-01-26T16:04:28.645Z,24.27
2019-01-26T16:07:12.530Z,25.70
2019-01-26T16:09:46.023Z,27.60
2019-01-26T16:12:25.015Z,25.53
2019-01-26T16:15:09.988Z,26.60
2019-01-26T16:17:43.868Z,25.00
2019-01-26T16:20:20.440Z,27.10
2019-01-26T16:22:53.960Z,27.57
2019-01-26T16:25:27.696Z,32.03
2019-01-26T16:28:00.956Z,29.73
2019-01-26T16:30:34.610Z,31.10
2019-01-26T16:33:08.440Z,27.43
2019-01-26T16:35:41.713Z,29.27
2019-01-26T16:38:26.339Z,27.13
2019-01-26T16:40:58.090Z,30.00
2019-01-26T16:43:31.536Z,30.37
2019-01-26T16:46:05.094Z,29.30
2019-01-26T16:48:38.936Z,29.70
2019-01-26T16:51:12.186Z,31.23
2019-01-26T16:53:46.284Z,32.17
2019-01-26T16:56:20.382Z,32.80
2019-01-26T16:58:53.846Z,33.83
2019-01-26T17:01:36.622Z,34.53
2019-01-26T17:04:19.418Z,36.63
2019-01-26T17:06:53.010Z,36.40
2019-01-26T17:09:25.463Z,36.03
2019-01-26T17:11:58.994Z,36.27
2019-01-26T17:14:30.979Z,38.70
2019-01-26T17:17:04.235Z,42.43
2019-01-26T17:19:37.738Z,37.37
2019-01-26T17:22:11.628Z,39.07
2019-01-26T17:24:45.181Z,40.83
2019-01-26T17:27:20.943Z,41.30
2019-01-26T17:29:55.606Z,42.30
2019-01-26T17:32:30.151Z,40.87
2019-01-26T17:35:11.887Z,41.50
2019-01-26T17:37:46.626Z,43.53
2019-01-26T17:40:21.503Z,46.80
2019-01-26T17:43:04.397Z,50.30
2019-01-26T17:45:46.927Z,54.33
2019-01-26T17:48:21.457Z,55.13
2019-01-26T17:51:04.520Z,56.97
2019-01-26T17:53:37.636Z,56.60
2019-01-26T17:56:19.988Z,56.20
2019-01-26T17:58:53.469Z,65.37
2019-01-26T18:01:26.591Z,69.90
2019-01-26T18:04:09.716Z,65.03
2019-01-26T18:06:43.527Z,63.87
2019-01-26T18:09:18.595Z,70.93
2019-01-26T18:11:52.140Z,69.83
2019-01-26T18:14:26.622Z,66.83
2019-01-26T18:17:00.338Z,69.70
2019-01-26T18:19:42.546Z,68.47
2019-01-26T18:22:16.041Z,69.53
2019-01-26T18:24:49.278Z,67.83
2019-01-26T18:27:22.780Z,62.00
2019-01-26T18:30:05.576Z,64.47
2019-01-26T18:32:47.449Z,60.87
2019-01-26T18:35:22.239Z,61.57
2019-01-26T18:37:58.479Z,59.87
2019-01-26T18:40:41.012Z,54.67
2019-01-26T18:43:14.128Z,55.37
2019-01-26T18:45:47.762Z,48.87
2019-01-26T18:48:21.945Z,48.73
2019-01-26T18:50:56.271Z,48.03
2019-01-26T18:53:29.882Z,50.33
2019-01-26T18:56:03.389Z,52.97
2019-01-26T18:58:36.948Z,46.60
2019-01-26T19:01:10.263Z,46.50
2019-01-26T19:04:08.965Z,49.27
2019-01-26T19:06:51.387Z,53.50
2019-01-26T19:09:25.546Z,52.40
2019-01-26T19:11:57.292Z,48.27
2019-01-26T19:14:39.903Z,50.63
2019-01-26T19:17:13.961Z,44.77
2019-01-26T19:19:56.404Z,52.23
2019-01-26T19:22:30.550Z,48.03
2019-01-26T19:25:15.227Z,50.97
2019-01-26T19:27:49.345Z,49.97
2019-01-26T19:30:22.930Z,47.57
2019-01-26T19:32:56.089Z,49.80
2019-01-26T19:35:30.054Z,48.53
2019-01-26T19:38:05.011Z,50.23
2019-01-26T19:40:38.682Z,47.87
2019-01-26T19:43:11.965Z,46.20
2019-01-26T19:45:45.115Z,49.77
2019-01-26T19:48:27.223Z,49.93
2019-01-26T19:51:02.716Z,48.87
2019-01-26T19:53:36.049Z,54.90
2019-01-26T19:56:21.158Z,50.10
2019-01-26T19:59:04.732Z,53.63
2019-01-26T20:01:43.277Z,51.33
2019-01-26T20:04:16.772Z,57.03
2019-01-26T20:06:50.798Z,51.80
2019-01-26T20:09:25.901Z,47.43
2019-01-26T20:11:59.102Z,50.77
2019-01-26T20:14:33.396Z,56.60
2019-01-26T20:17:15.731Z,52.77
2019-01-26T20:19:49.062Z,53.80
2019-01-26T20:22:22.577Z,51.50
2019-01-26T20:24:55.770Z,51.50
2019-01-26T20:27:41.998Z,60.53
2019-01-26T20:30:19.652Z,55.10
2019-01-26T20:32:53.508Z,54.87
2019-01-26T20:35:37.081Z,53.00
2019-01-26T20:38:19.793Z,56.00
2019-01-26T20:40:53.748Z,57.13
2019-01-26T20:43:29.645Z,64.07
2019-01-26T20:46:03.823Z,54.27
2019-01-26T20:48:37.038Z,62.67
2019-01-26T20:51:11.209Z,53.20
2019-01-26T20:53:44.717Z,57.53
2019-01-26T20:56:18.873Z,55.63
2019-01-26T20:58:51.527Z,64.07
2019-01-26T21:01:25.679Z,60.83
2019-01-26T21:04:04.132Z,67.93
2019-01-26T21:06:43.393Z,59.80
2019-01-26T21:09:17.302Z,61.70
2019-01-26T21:11:50.443Z,63.93
2019-01-26T21:14:23.819Z,62.40
2019-01-26T21:16:58.395Z,62.37
2019-01-26T21:19:31.809Z,64.67
2019-01-26T21:22:05.260Z,62.63
2019-01-26T21:24:38.318Z,66.63
2019-01-26T21:27:21.131Z,59.43
2019-01-26T21:30:05.408Z,68.10
2019-01-26T21:32:43.421Z,63.87
2019-01-26T21:35:26.758Z,69.93
2019-01-26T21:38:00.605Z,69.33
2019-01-26T21:40:34.213Z,70.97
2019-01-26T21:43:08.377Z,70.37
2019-01-26T21:45:50.898Z,75.10
2019-01-26T21:48:24.325Z,74.77
2019-01-26T21:50:57.621Z,77.33
2019-01-26T21:53:31.249Z,74.50
2019-01-26T21:56:04.855Z,72.63
2019-01-26T21:58:38.450Z,71.07
2019-01-26T22:01:12.407Z,69.83
2019-01-26T22:03:45.908Z,72.80
2019-01-26T22:06:19.485Z,73.23
2019-01-26T22:08:53.102Z,67.37
2019-01-26T22:11:26.463Z,69.17
2019-01-26T22:14:03.574Z,70.47
2019-01-26T22:16:37.225Z,71.63
2019-01-26T22:19:10.422Z,68.60
2019-01-26T22:21:46.141Z,76.67
2019-01-26T22:24:19.502Z,79.00
2019-01-26T22:26:53.011Z,70.87
2019-01-26T22:29:31.237Z,70.33
2019-01-26T22:32:12.175Z,72.67
2019-01-26T22:34:43.611Z,73.03
2019-01-26T22:37:18.957Z,65.07
2019-01-26T22:39:54.126Z,65.20
2019-01-26T22:42:28.290Z,67.97
2019-01-26T22:45:01.478Z,63.97
2019-01-26T22:47:35.597Z,63.67
2019-01-26T22:50:12.017Z,63.13
2019-01-26T22:52:46.196Z,58.63
2019-01-26T22:55:19.860Z,62.57
2019-01-26T22:57:53.992Z,63.50
2019-01-26T23:00:54.989Z,59.43
2019-01-26T23:03:47.808Z,57.40
2019-01-26T23:06:46.304Z,57.27
2019-01-26T23:09:50.157Z,53.70
2019-01-26T23:12:57.138Z,49.73
2019-01-26T23:16:11.314Z,49.03
2019-01-26T23:19:22.721Z,51.90
2019-01-26T23:22:44.604Z,49.90
2019-01-26T23:25:58.954Z,48.73
2019-01-26T23:29:07.028Z,46.40
2019-01-26T23:31:40.138Z,45.10
2019-01-26T23:34:13.636Z,45.57
2019-01-26T23:36:47.112Z,41.10
2019-01-26T23:39:20.603Z,45.77
2019-01-26T23:41:56.129Z,41.70
2019-01-26T23:44:40.990Z,45.03
2019-01-26T23:47:15.538Z,40.77
2019-01-26T23:49:51.957Z,40.10
2019-01-26T23:52:33.790Z,43.03
2019-01-26T23:55:23.084Z,42.13
2019-01-26T23:57:57.238Z,42.83
